Etusivu
METAR-TAF:

METAR-TAF

Lentoasemat :

L.O. Simenstad Municipal Airport

Osceola, Wisconsin, Yhdysvallat

Leveyspiiri: 45-18-31N, Pituuspiiri: 092-41-24W, korkeus merenpinnasta: 275 m

Tämänhetkinen sää

Tämä raportti tehtiin 33 minuuttia sitten, kello 09.35 UTC
tyyntä
Lämpötila 3°C
Kosteus 100%
Ilmanpaine 1018 hPa
Näkyvyys: 6.4 km
Pilvistä 12000 ft:n korkeudessa
utua

METAR: KOEO 170935Z AUTO 00000KT 4SM BR OVC120 03/03 A3005 RMK AO2 T00260026

Aika: 05:08 (10:08 UTC)


TAF: puuttuu

Säähavainnot ja -ennusteet yli 4000 lentoasemalta (METAR- ja TAF-raportit).

Käytössä olevat sääasemat on merkitty karttaan keltaisilla ja punaisilla pisteillä.

Aseta hiiri pisteen päälle nähdäksesi sääaseman nimen.

Klikkaa sitten nähdäksesi säähavainnot ja -ennusteet.

Kartan vaihtaminen: klikkaa mustalla rastilla varustettuja vihreitä pisteitä, niin voit zoomata sisään; viivalla varustettua vihreää pistettä, niin voit zoomata ulos tai vihreitä nuolia, niin pääset viereisille kartoille.


METAR-TAF: